Terminal Aerodrome Forecast
Issued by NWS

Home | Current Version | Previous Version | Graphics & Text | Print | Product List | Glossary On
Versions: 1 2 3 4 5 6 7 8 9 10 11 12 13 14 15 16 17 18
000
FTUS43 KICT 241024 AAB
TAFRSL
TAF AMD
KRSL 241024Z 2410/2506 06013KT P6SM SCT009 OVC015
     FM241500 36012KT P6SM SCT009 OVC015
     FM241800 33020G28KT P6SM SCT030=

USA.gov is the U.S. government's official web portal to all federal, state and local government web resources and services.